createdAt,value
2023-03-12T00:00:10.038Z,0.69
2023-03-12T00:02:38.046Z,0.67
2023-03-12T00:05:06.105Z,0.67
2023-03-12T00:07:33.403Z,0.65
2023-03-12T00:10:00.631Z,0.64
2023-03-12T00:12:27.892Z,0.54
2023-03-12T00:14:55.139Z,0.49
2023-03-12T00:17:23.896Z,0.50
2023-03-12T00:19:51.880Z,0.51
2023-03-12T00:22:19.328Z,0.47
2023-03-12T00:24:50.908Z,0.43
2023-03-12T00:27:18.146Z,0.39
2023-03-12T00:29:45.397Z,0.38
2023-03-12T00:32:12.882Z,0.31
2023-03-12T00:34:41.560Z,0.30
2023-03-12T00:37:08.922Z,0.37
2023-03-12T00:39:36.452Z,0.32
2023-03-12T00:42:04.290Z,0.32
2023-03-12T00:44:31.526Z,0.31
2023-03-12T00:46:58.832Z,0.24
2023-03-12T00:49:26.060Z,0.29
2023-03-12T00:51:55.083Z,0.24
2023-03-12T00:54:23.052Z,0.21
2023-03-12T00:56:51.036Z,0.25
2023-03-12T00:59:18.222Z,0.17
2023-03-12T01:01:45.652Z,0.17
2023-03-12T01:04:13.490Z,0.18
2023-03-12T01:06:41.124Z,0.21
2023-03-12T01:09:10.014Z,0.14
2023-03-12T01:11:38.124Z,0.09
2023-03-12T01:14:08.029Z,0.03
2023-03-12T01:16:35.447Z,-0.04
2023-03-12T01:19:03.576Z,-0.02
2023-03-12T01:21:31.050Z,0.02
2023-03-12T01:23:58.841Z,0.03
2023-03-12T01:26:27.503Z,-0.01
2023-03-12T01:28:54.668Z,-0.02
2023-03-12T01:31:22.332Z,-0.06
2023-03-12T01:33:51.041Z,-0.12
2023-03-12T01:36:21.176Z,-0.16
2023-03-12T01:38:51.169Z,-0.13
2023-03-12T01:41:18.863Z,-0.17
2023-03-12T01:43:47.468Z,-0.23
2023-03-12T01:46:37.062Z,-0.31
2023-03-12T01:49:14.222Z,-0.22
2023-03-12T01:51:45.475Z,-0.29
2023-03-12T01:54:16.866Z,-0.36
2023-03-12T01:56:45.541Z,-0.27
2023-03-12T01:59:19.399Z,-0.28
2023-03-12T02:01:47.566Z,-0.37
2023-03-12T02:04:18.026Z,-0.31
2023-03-12T02:06:51.790Z,-0.35
2023-03-12T02:09:21.228Z,-0.39
2023-03-12T02:11:49.377Z,-0.36
2023-03-12T02:14:19.141Z,-0.36
2023-03-12T02:16:46.476Z,-0.39
2023-03-12T02:19:23.256Z,-0.44
2023-03-12T02:21:50.673Z,-0.43
2023-03-12T02:24:26.365Z,-0.40
2023-03-12T02:26:55.964Z,-0.39
2023-03-12T02:29:23.541Z,-0.42
2023-03-12T02:31:54.767Z,-0.44
2023-03-12T02:34:22.323Z,-0.48
2023-03-12T02:36:50.126Z,-0.42
2023-03-12T02:39:17.429Z,-0.47
2023-03-12T02:41:48.419Z,-0.48
2023-03-12T02:44:19.493Z,-0.44
2023-03-12T02:46:52.080Z,-0.46
2023-03-12T02:49:21.982Z,-0.56
2023-03-12T02:51:50.072Z,-0.51
2023-03-12T02:54:18.806Z,-0.53
2023-03-12T02:56:46.551Z,-0.47
2023-03-12T02:59:15.456Z,-0.50
2023-03-12T03:01:46.011Z,-0.50
2023-03-12T03:04:13.665Z,-0.48
2023-03-12T03:06:43.752Z,-0.53
2023-03-12T03:09:11.797Z,-0.68
2023-03-12T03:11:39.226Z,-0.48
2023-03-12T03:14:07.888Z,-0.50
2023-03-12T03:16:35.729Z,-0.51
2023-03-12T03:19:04.928Z,-0.55
2023-03-12T03:21:32.348Z,-0.45
2023-03-12T03:23:59.626Z,-0.48
2023-03-12T03:26:27.074Z,-0.45
2023-03-12T03:28:54.453Z,-0.50
2023-03-12T03:31:21.994Z,-0.53
2023-03-12T03:33:49.513Z,-0.46
2023-03-12T03:36:18.188Z,-0.41
2023-03-12T03:38:56.698Z,-0.45
2023-03-12T03:41:24.232Z,-0.44
2023-03-12T03:43:56.493Z,-0.48
2023-03-12T03:46:24.472Z,-0.44
2023-03-12T03:48:57.594Z,-0.46
2023-03-12T03:51:26.452Z,-0.48
2023-03-12T03:53:58.467Z,-0.48
2023-03-12T03:56:30.633Z,-0.51
2023-03-12T03:58:59.669Z,-0.46
2023-03-12T04:01:27.966Z,-0.31
2023-03-12T04:03:56.901Z,-0.27
2023-03-12T04:06:25.976Z,-0.19
2023-03-12T04:08:53.310Z,-0.10
2023-03-12T04:11:24.010Z,-0.12
2023-03-12T04:13:51.643Z,-0.08
2023-03-12T04:16:22.065Z,-0.06
2023-03-12T04:18:52.407Z,-0.08
2023-03-12T04:21:20.462Z,-0.02
2023-03-12T04:23:51.102Z,-0.06
2023-03-12T04:26:19.955Z,-0.04
2023-03-12T04:28:47.137Z,-0.07
2023-03-12T04:31:14.481Z,-0.04
2023-03-12T04:33:50.965Z,-0.11
2023-03-12T04:36:20.747Z,-0.07
2023-03-12T04:38:51.066Z,-0.11
2023-03-12T04:41:22.137Z,-0.01
2023-03-12T04:43:58.160Z,-0.03
2023-03-12T04:46:26.094Z,0.00
2023-03-12T04:48:53.367Z,0.02
2023-03-12T04:51:20.649Z,0.01
2023-03-12T04:53:47.956Z,0.02
2023-03-12T04:56:18.100Z,0.05
2023-03-12T04:58:47.095Z,-0.03
2023-03-12T05:01:23.008Z,-0.04
2023-03-12T05:03:51.830Z,-0.09
2023-03-12T05:06:19.472Z,-0.06
2023-03-12T05:08:47.833Z,-0.10
2023-03-12T05:11:17.582Z,-0.14
2023-03-12T05:13:45.390Z,-0.15
2023-03-12T05:16:14.172Z,-0.17
2023-03-12T05:18:41.752Z,-0.17
2023-03-12T05:21:12.562Z,-0.10
2023-03-12T05:23:40.251Z,-0.10
2023-03-12T05:26:07.530Z,-0.08
2023-03-12T05:28:36.574Z,-0.06
2023-03-12T05:31:10.069Z,-0.05
2023-03-12T05:33:37.646Z,-0.08
2023-03-12T05:36:05.741Z,0.02
2023-03-12T05:38:33.570Z,0.03
2023-03-12T05:41:00.973Z,0.03
2023-03-12T05:43:31.247Z,-0.01
2023-03-12T05:46:01.939Z,0.00
2023-03-12T05:48:29.755Z,-0.02
2023-03-12T05:50:57.422Z,0.01
2023-03-12T05:53:25.067Z,0.08
2023-03-12T05:55:53.499Z,0.03
2023-03-12T05:58:21.008Z,0.14
2023-03-12T06:00:48.669Z,0.17
2023-03-12T06:03:17.481Z,0.16
2023-03-12T06:05:45.056Z,0.17
2023-03-12T06:08:12.523Z,0.18
2023-03-12T06:10:40.519Z,0.22
2023-03-12T06:13:08.126Z,0.24
2023-03-12T06:15:35.593Z,0.28
2023-03-12T06:18:05.030Z,0.26
2023-03-12T06:20:34.576Z,0.19
2023-03-12T06:23:02.148Z,0.26
2023-03-12T06:25:29.483Z,0.26
2023-03-12T06:27:57.421Z,0.21
2023-03-12T06:30:24.780Z,0.25
2023-03-12T06:32:52.158Z,0.27
2023-03-12T06:35:19.623Z,0.26
2023-03-12T06:37:48.644Z,0.30
2023-03-12T06:40:16.382Z,0.36
2023-03-12T06:42:43.630Z,0.32
2023-03-12T06:45:11.571Z,0.39
2023-03-12T06:47:38.962Z,0.44
2023-03-12T06:50:06.696Z,0.65
2023-03-12T06:52:34.040Z,0.86
2023-03-12T06:55:02.656Z,0.83
2023-03-12T06:57:29.896Z,0.89
2023-03-12T06:59:57.076Z,0.95
2023-03-12T07:02:24.361Z,1.00
2023-03-12T07:04:51.588Z,1.04
2023-03-12T07:07:18.974Z,1.21
2023-03-12T07:09:46.254Z,1.05
2023-03-12T07:12:14.956Z,1.02
2023-03-12T07:14:42.400Z,1.09
2023-03-12T07:17:09.886Z,1.10
2023-03-12T07:19:37.140Z,1.30
2023-03-12T07:22:04.536Z,1.34
2023-03-12T07:24:31.847Z,1.56
2023-03-12T07:26:59.146Z,1.71
2023-03-12T07:29:27.890Z,1.71
2023-03-12T07:31:55.214Z,1.81
2023-03-12T07:34:22.560Z,1.84
2023-03-12T07:36:50.173Z,1.94
2023-03-12T07:39:17.507Z,1.76
2023-03-12T07:41:44.832Z,1.86
2023-03-12T07:44:12.134Z,1.88
2023-03-12T07:46:40.974Z,1.79
2023-03-12T07:49:08.226Z,1.87
2023-03-12T07:51:35.607Z,2.10
2023-03-12T07:54:03.002Z,2.01
2023-03-12T07:56:30.775Z,1.97
2023-03-12T07:58:58.302Z,1.85
2023-03-12T08:01:25.756Z,1.98
2023-03-12T08:03:54.360Z,2.10
2023-03-12T08:06:21.702Z,2.14
2023-03-12T08:08:49.191Z,2.28
2023-03-12T08:11:16.480Z,2.29
2023-03-12T08:13:44.411Z,2.35
2023-03-12T08:16:12.043Z,2.28
2023-03-12T08:18:39.411Z,2.38
2023-03-12T08:21:08.533Z,2.62
2023-03-12T08:23:35.758Z,2.59
2023-03-12T08:26:03.042Z,2.87
2023-03-12T08:28:30.253Z,2.79
2023-03-12T08:31:00.394Z,2.90
2023-03-12T08:33:28.266Z,3.00
2023-03-12T08:35:55.629Z,3.28
2023-03-12T08:38:24.498Z,3.22
2023-03-12T08:40:56.122Z,3.33
2023-03-12T08:43:23.436Z,3.31
2023-03-12T08:45:54.228Z,3.66
2023-03-12T08:48:21.562Z,3.34
2023-03-12T08:50:48.887Z,3.16
2023-03-12T08:53:16.260Z,3.25
2023-03-12T08:55:44.975Z,3.44
2023-03-12T08:58:12.254Z,3.55
2023-03-12T09:00:39.559Z,3.98
2023-03-12T09:03:06.921Z,4.29
2023-03-12T09:05:34.293Z,4.31
2023-03-12T09:08:01.567Z,3.99
2023-03-12T09:10:30.876Z,3.70
2023-03-12T09:13:00.048Z,3.60
2023-03-12T09:15:27.485Z,3.60
2023-03-12T09:17:54.872Z,3.61
2023-03-12T09:20:22.914Z,3.82
2023-03-12T09:22:50.291Z,3.94
2023-03-12T09:25:18.253Z,3.92
2023-03-12T09:27:47.355Z,4.34
2023-03-12T09:30:17.808Z,4.47
2023-03-12T09:32:45.750Z,4.33
2023-03-12T09:35:17.290Z,4.56
2023-03-12T09:37:48.482Z,4.13
2023-03-12T09:40:18.053Z,4.23
2023-03-12T09:42:51.069Z,4.74
2023-03-12T09:45:22.678Z,4.64
2023-03-12T09:47:52.970Z,4.76
2023-03-12T09:50:25.464Z,4.88
2023-03-12T09:52:59.258Z,5.01
2023-03-12T09:55:28.585Z,5.03
2023-03-12T09:57:56.824Z,4.93
2023-03-12T10:00:30.182Z,4.81
2023-03-12T10:03:29.058Z,5.22
2023-03-12T10:06:08.801Z,5.56
2023-03-12T10:08:50.473Z,5.18
2023-03-12T10:11:30.635Z,5.13
2023-03-12T10:14:08.352Z,5.24
2023-03-12T10:16:51.234Z,4.94
2023-03-12T10:19:34.985Z,5.60
2023-03-12T10:22:13.377Z,5.74
2023-03-12T10:24:51.162Z,5.60
2023-03-12T10:27:18.917Z,5.76
2023-03-12T10:29:49.933Z,6.20
2023-03-12T10:32:25.150Z,6.70
2023-03-12T10:34:56.225Z,6.28
2023-03-12T10:37:26.074Z,6.37
2023-03-12T10:39:55.041Z,6.75
2023-03-12T10:42:24.647Z,5.86
2023-03-12T10:44:54.384Z,5.78
2023-03-12T10:47:36.026Z,5.52
2023-03-12T10:50:16.439Z,5.52
2023-03-12T10:52:45.059Z,5.37
2023-03-12T10:55:19.622Z,5.16
2023-03-12T10:57:47.638Z,5.22
2023-03-12T11:00:19.674Z,5.56
2023-03-12T11:02:56.458Z,5.27
2023-03-12T11:05:26.575Z,5.26
2023-03-12T11:07:54.425Z,5.21
2023-03-12T11:10:25.533Z,4.96
2023-03-12T11:12:56.934Z,5.10
2023-03-12T11:15:26.124Z,5.04
2023-03-12T11:18:18.280Z,4.94
2023-03-12T11:20:46.266Z,4.72
2023-03-12T11:23:15.224Z,4.97
2023-03-12T11:25:42.787Z,4.63
2023-03-12T11:28:21.077Z,4.53
2023-03-12T11:30:52.836Z,4.37
2023-03-12T11:33:21.588Z,4.35
2023-03-12T11:35:58.177Z,4.36
2023-03-12T11:38:30.918Z,3.87
2023-03-12T11:41:11.263Z,3.74
2023-03-12T11:43:55.493Z,3.38
2023-03-12T11:46:32.324Z,3.16
2023-03-12T11:49:11.666Z,3.21
2023-03-12T11:51:49.923Z,3.07
2023-03-12T11:54:30.743Z,3.08
2023-03-12T11:57:02.225Z,3.02
2023-03-12T11:59:43.388Z,2.93
2023-03-12T12:02:35.137Z,2.93
2023-03-12T12:05:18.296Z,2.81
2023-03-12T12:07:59.259Z,2.73
2023-03-12T12:10:31.307Z,2.92
2023-03-12T12:13:08.756Z,2.98
2023-03-12T12:15:46.572Z,2.84
2023-03-12T12:18:27.146Z,2.94
2023-03-12T12:21:01.501Z,2.83
2023-03-12T12:23:38.891Z,2.91
2023-03-12T12:26:10.187Z,2.88
2023-03-12T12:28:59.685Z,2.98
2023-03-12T12:31:34.976Z,2.88
2023-03-12T12:34:17.499Z,2.79
2023-03-12T12:36:51.536Z,2.73
2023-03-12T12:39:29.660Z,2.65
2023-03-12T12:42:02.565Z,2.62
2023-03-12T12:44:36.821Z,2.73
2023-03-12T12:47:09.096Z,2.60
2023-03-12T12:49:43.608Z,2.75
2023-03-12T12:52:15.914Z,2.81
2023-03-12T12:54:53.584Z,2.68
2023-03-12T12:57:26.393Z,2.64
2023-03-12T13:00:09.540Z,2.77
2023-03-12T13:02:40.871Z,2.80
2023-03-12T13:05:20.199Z,2.79
2023-03-12T13:07:48.879Z,2.86
2023-03-12T13:10:48.760Z,2.84
2023-03-12T13:13:27.206Z,2.82
2023-03-12T13:16:26.921Z,2.95
2023-03-12T13:18:58.523Z,2.91
2023-03-12T13:21:34.418Z,2.97
2023-03-12T13:24:19.286Z,2.98
2023-03-12T13:26:53.552Z,2.98
2023-03-12T13:29:34.750Z,2.96
2023-03-12T13:32:02.521Z,3.03
2023-03-12T13:34:42.871Z,3.05
2023-03-12T13:37:30.166Z,3.09
2023-03-12T13:40:02.079Z,3.08
2023-03-12T13:42:40.290Z,3.19
2023-03-12T13:45:27.228Z,3.17
2023-03-12T13:48:01.333Z,3.04
2023-03-12T13:50:30.581Z,3.16
2023-03-12T13:53:05.865Z,3.25
2023-03-12T13:55:36.789Z,3.23
2023-03-12T13:58:08.647Z,3.16
2023-03-12T14:00:39.924Z,3.35
2023-03-12T14:03:14.200Z,3.29
2023-03-12T14:05:50.745Z,3.28
2023-03-12T14:08:38.197Z,3.30
2023-03-12T14:11:38.931Z,3.31
2023-03-12T14:14:31.862Z,3.28
2023-03-12T14:17:01.930Z,3.29
2023-03-12T14:19:31.238Z,3.35
2023-03-12T14:22:05.012Z,3.28
2023-03-12T14:24:34.197Z,3.34
2023-03-12T14:27:06.362Z,3.33
2023-03-12T14:29:37.963Z,3.34
2023-03-12T14:32:12.947Z,3.31
2023-03-12T14:34:42.638Z,3.35
2023-03-12T14:37:15.318Z,3.47
2023-03-12T14:39:46.368Z,3.42
2023-03-12T14:42:21.046Z,3.61
2023-03-12T14:44:54.694Z,3.50
2023-03-12T14:47:22.087Z,3.62
2023-03-12T14:49:52.117Z,3.62
2023-03-12T14:52:24.384Z,3.54
2023-03-12T14:54:57.582Z,3.74
2023-03-12T14:57:26.368Z,3.64
2023-03-12T14:59:55.389Z,3.72
2023-03-12T15:02:23.836Z,3.71
2023-03-12T15:04:54.823Z,3.86
2023-03-12T15:07:25.829Z,3.91
2023-03-12T15:09:53.882Z,3.86
2023-03-12T15:12:24.904Z,3.88
2023-03-12T15:15:01.404Z,3.98
2023-03-12T15:17:31.298Z,4.01
2023-03-12T15:19:59.500Z,4.06
2023-03-12T15:22:27.705Z,4.04
2023-03-12T15:24:55.215Z,4.14
2023-03-12T15:27:33.130Z,4.21
2023-03-12T15:30:02.409Z,4.23
2023-03-12T15:32:30.076Z,4.28
2023-03-12T15:34:59.358Z,4.41
2023-03-12T15:37:30.139Z,4.48
2023-03-12T15:39:58.137Z,4.52
2023-03-12T15:42:27.314Z,4.55
2023-03-12T15:45:01.779Z,4.59
2023-03-12T15:47:40.204Z,4.67
2023-03-12T15:50:12.769Z,4.72
2023-03-12T15:52:40.430Z,4.70
2023-03-12T15:55:24.928Z,4.75
2023-03-12T15:57:55.261Z,4.78
2023-03-12T16:00:25.552Z,4.82
2023-03-12T16:02:57.158Z,4.92
2023-03-12T16:05:27.585Z,5.02
2023-03-12T16:07:55.029Z,5.03
2023-03-12T16:10:25.454Z,5.07
2023-03-12T16:12:59.634Z,5.17
2023-03-12T16:15:30.909Z,5.21
2023-03-12T16:17:59.603Z,5.24
2023-03-12T16:20:26.816Z,5.24
2023-03-12T16:22:54.096Z,5.21
2023-03-12T16:25:22.209Z,5.32
2023-03-12T16:27:52.262Z,5.37
2023-03-12T16:30:25.199Z,5.29
2023-03-12T16:32:52.965Z,5.38
2023-03-12T16:35:22.030Z,5.47
2023-03-12T16:37:49.576Z,5.49
2023-03-12T16:40:30.949Z,5.53
2023-03-12T16:43:01.839Z,5.57
2023-03-12T16:45:30.745Z,5.62
2023-03-12T16:48:00.165Z,5.67
2023-03-12T16:50:29.025Z,5.74
2023-03-12T16:52:56.634Z,5.79
2023-03-12T16:55:27.332Z,5.79
2023-03-12T16:57:57.847Z,5.83
2023-03-12T17:00:27.303Z,5.82
2023-03-12T17:02:58.287Z,5.97
2023-03-12T17:05:28.267Z,5.93
2023-03-12T17:07:57.603Z,5.97
2023-03-12T17:10:26.019Z,5.96
2023-03-12T17:12:53.916Z,6.02
2023-03-12T17:15:23.978Z,6.05
2023-03-12T17:17:52.052Z,6.09
2023-03-12T17:20:22.324Z,6.09
2023-03-12T17:22:50.230Z,6.13
2023-03-12T17:25:22.130Z,6.05
2023-03-12T17:27:49.473Z,6.06
2023-03-12T17:30:17.007Z,6.20
2023-03-12T17:32:44.687Z,6.24
2023-03-12T17:35:13.817Z,6.33
2023-03-12T17:37:41.136Z,6.36
2023-03-12T17:40:09.919Z,6.36
2023-03-12T17:42:39.043Z,6.34
2023-03-12T17:45:08.447Z,6.47
2023-03-12T17:47:35.875Z,6.44
2023-03-12T17:50:03.668Z,6.40
2023-03-12T17:52:31.527Z,6.57
2023-03-12T17:54:58.750Z,6.54
2023-03-12T17:57:26.396Z,6.64
2023-03-12T17:59:54.990Z,6.64
2023-03-12T18:02:22.394Z,6.70
2023-03-12T18:04:49.677Z,6.70
2023-03-12T18:07:17.405Z,6.71
2023-03-12T18:09:45.176Z,6.72
2023-03-12T18:12:12.517Z,6.65
2023-03-12T18:14:39.710Z,6.71
2023-03-12T18:17:11.103Z,6.72
2023-03-12T18:19:38.349Z,6.86
2023-03-12T18:22:05.701Z,6.90
2023-03-12T18:24:33.452Z,6.78
2023-03-12T18:27:00.718Z,6.88
2023-03-12T18:29:28.270Z,6.84
2023-03-12T18:31:55.651Z,6.85
2023-03-12T18:34:24.394Z,6.92
2023-03-12T18:36:51.702Z,6.88
2023-03-12T18:39:19.170Z,6.94
2023-03-12T18:41:46.447Z,6.97
2023-03-12T18:44:13.986Z,6.97
2023-03-12T18:46:41.298Z,6.96
2023-03-12T18:49:09.641Z,6.98
2023-03-12T18:51:39.009Z,7.12
2023-03-12T18:54:06.422Z,7.06
2023-03-12T18:56:34.392Z,7.25
2023-03-12T18:59:02.172Z,7.14
2023-03-12T19:01:29.528Z,7.20
2023-03-12T19:03:57.316Z,7.21
2023-03-12T19:06:24.688Z,7.25
2023-03-12T19:08:53.389Z,7.15
2023-03-12T19:11:20.670Z,7.28
2023-03-12T19:13:50.133Z,7.23
2023-03-12T19:16:20.923Z,7.32
2023-03-12T19:18:49.511Z,7.30
2023-03-12T19:21:17.535Z,7.36
2023-03-12T19:23:45.402Z,7.35
2023-03-12T19:26:14.424Z,7.28
2023-03-12T19:28:42.101Z,7.31
2023-03-12T19:31:11.801Z,7.36
2023-03-12T19:33:39.107Z,7.33
2023-03-12T19:36:07.384Z,7.25
2023-03-12T19:38:34.718Z,7.20
2023-03-12T19:41:01.989Z,7.16
2023-03-12T19:43:30.605Z,7.22
2023-03-12T19:45:57.980Z,7.17
2023-03-12T19:48:25.316Z,7.16
2023-03-12T19:50:53.124Z,7.11
2023-03-12T19:53:20.725Z,7.11
2023-03-12T19:55:48.766Z,7.16
2023-03-12T19:58:16.332Z,7.13
2023-03-12T20:00:45.171Z,7.08
2023-03-12T20:03:12.577Z,7.11
2023-03-12T20:05:43.271Z,7.12
2023-03-12T20:08:11.113Z,7.18
2023-03-12T20:10:38.901Z,7.24
2023-03-12T20:13:06.166Z,7.18
2023-03-12T20:15:33.613Z,7.29
2023-03-12T20:18:02.328Z,7.17
2023-03-12T20:20:29.574Z,7.18
2023-03-12T20:22:56.892Z,7.10
2023-03-12T20:25:24.099Z,7.07
2023-03-12T20:27:51.377Z,7.16
2023-03-12T20:30:19.015Z,7.09
2023-03-12T20:32:46.927Z,7.14
2023-03-12T20:35:16.181Z,7.12
2023-03-12T20:37:43.509Z,7.12
2023-03-12T20:40:12.025Z,7.22
2023-03-12T20:42:39.334Z,7.25
2023-03-12T20:45:07.826Z,7.21
2023-03-12T20:47:35.176Z,7.18
2023-03-12T20:50:02.462Z,7.19
2023-03-12T20:52:31.129Z,7.15
2023-03-12T20:54:58.586Z,7.13
2023-03-12T20:57:25.918Z,7.18
2023-03-12T20:59:53.232Z,7.11
2023-03-12T21:02:20.680Z,7.21
2023-03-12T21:04:48.002Z,7.21
2023-03-12T21:07:15.664Z,7.18
2023-03-12T21:09:44.198Z,7.21
2023-03-12T21:12:11.405Z,7.27
2023-03-12T21:14:38.669Z,7.29
2023-03-12T21:17:06.131Z,7.32
2023-03-12T21:19:33.853Z,7.39
2023-03-12T21:22:01.116Z,7.48
2023-03-12T21:24:28.334Z,7.47
2023-03-12T21:26:58.927Z,7.49
2023-03-12T21:29:26.534Z,7.43
2023-03-12T21:31:54.260Z,7.42
2023-03-12T21:34:21.856Z,7.48
2023-03-12T21:36:49.226Z,7.52
2023-03-12T21:39:16.486Z,7.62
2023-03-12T21:41:43.679Z,7.58
2023-03-12T21:44:14.247Z,7.60
2023-03-12T21:46:43.849Z,7.57
2023-03-12T21:49:11.254Z,7.55
2023-03-12T21:51:39.605Z,7.62
2023-03-12T21:54:07.149Z,7.58
2023-03-12T21:56:34.581Z,7.66
2023-03-12T21:59:02.114Z,7.59
2023-03-12T22:01:30.785Z,7.79
2023-03-12T22:03:59.938Z,7.77
2023-03-12T22:06:27.619Z,7.85
2023-03-12T22:08:54.894Z,7.88
2023-03-12T22:11:22.395Z,7.83
2023-03-12T22:13:49.752Z,7.83
2023-03-12T22:16:17.179Z,7.81
2023-03-12T22:18:46.541Z,7.82
2023-03-12T22:21:15.903Z,7.77
2023-03-12T22:23:43.113Z,7.85
2023-03-12T22:26:10.501Z,7.88
2023-03-12T22:28:37.825Z,7.97
2023-03-12T22:31:07.567Z,7.87
2023-03-12T22:33:35.691Z,7.82
2023-03-12T22:36:07.728Z,7.82
2023-03-12T22:38:36.248Z,7.76
2023-03-12T22:41:14.984Z,7.74
2023-03-12T22:43:43.172Z,7.85
2023-03-12T22:46:10.595Z,7.85
2023-03-12T22:48:37.943Z,7.79
2023-03-12T22:51:06.739Z,7.95
2023-03-12T22:53:34.260Z,7.98
2023-03-12T22:56:03.527Z,7.93
2023-03-12T22:58:30.830Z,7.92
2023-03-12T23:00:59.033Z,7.94
2023-03-12T23:03:26.888Z,7.93
2023-03-12T23:05:54.122Z,7.97
2023-03-12T23:08:23.770Z,7.99
2023-03-12T23:10:52.802Z,8.04
2023-03-12T23:13:20.053Z,7.98
2023-03-12T23:15:47.412Z,7.91
2023-03-12T23:18:14.759Z,7.96
2023-03-12T23:20:42.273Z,7.96
2023-03-12T23:23:09.576Z,7.95
2023-03-12T23:25:38.331Z,7.98
2023-03-12T23:28:05.629Z,8.00
2023-03-12T23:30:32.958Z,8.11
2023-03-12T23:33:00.385Z,8.10
2023-03-12T23:35:28.025Z,8.14
2023-03-12T23:37:55.304Z,7.99
2023-03-12T23:40:22.660Z,8.01
2023-03-12T23:42:51.262Z,8.08
2023-03-12T23:45:18.465Z,8.10
2023-03-12T23:47:45.829Z,8.04
2023-03-12T23:50:13.398Z,8.08
2023-03-12T23:52:40.675Z,8.09
2023-03-12T23:55:08.740Z,8.08
2023-03-12T23:57:35.961Z,8.17
